createdAt,value
2019-04-22T00:00:12.715Z,48
2019-04-22T00:05:22.983Z,48
2019-04-22T00:10:38.872Z,48
2019-04-22T00:15:31.949Z,48
2019-04-22T00:20:35.058Z,48
2019-04-22T00:25:40.877Z,48
2019-04-22T00:30:33.748Z,48
2019-04-22T00:35:34.391Z,49
2019-04-22T00:40:39.168Z,49
2019-04-22T00:45:38.390Z,49
2019-04-22T00:50:36.883Z,49
2019-04-22T00:55:37.420Z,50
2019-04-22T01:00:37.402Z,49
2019-04-22T01:05:40.248Z,50
2019-04-22T01:10:38.721Z,51
2019-04-22T01:15:40.031Z,52
2019-04-22T01:21:00.380Z,52
2019-04-22T01:25:29.279Z,53
2019-04-22T01:30:23.126Z,54
2019-04-22T01:35:24.302Z,55
2019-04-22T01:40:38.349Z,54
2019-04-22T01:45:39.090Z,55
2019-04-22T01:50:36.648Z,56
2019-04-22T01:55:36.753Z,57
2019-04-22T02:00:39.476Z,58
2019-04-22T02:05:33.891Z,58
2019-04-22T02:10:39.014Z,59
2019-04-22T02:15:37.791Z,60
2019-04-22T02:20:35.701Z,60
2019-04-22T02:25:40.763Z,61
2019-04-22T02:30:49.136Z,62
2019-04-22T02:35:57.103Z,64
2019-04-22T02:40:55.760Z,65
2019-04-22T02:45:49.703Z,66
2019-04-22T02:50:43.183Z,68
2019-04-22T02:55:48.653Z,69
2019-04-22T03:00:44.044Z,70
2019-04-22T03:05:55.083Z,70
2019-04-22T03:10:54.504Z,71
2019-04-22T03:15:50.703Z,73
2019-04-22T03:20:49.863Z,74
2019-04-22T03:25:58.398Z,75
2019-04-22T03:35:48.708Z,78
2019-04-22T03:40:45.967Z,79
2019-04-22T03:45:45.486Z,81
2019-04-22T03:55:42.938Z,83
2019-04-22T04:10:47.473Z,85
2019-04-22T04:15:37.949Z,86
2019-04-22T04:20:44.393Z,87
2019-04-22T04:25:51.412Z,84
2019-04-22T04:30:45.603Z,79
2019-04-22T04:35:45.758Z,74
2019-04-22T04:40:39.685Z,69
2019-04-22T04:45:44.689Z,62
2019-04-22T04:50:46.791Z,57
2019-04-22T05:05:39.324Z,49
2019-04-22T05:15:42.635Z,44
2019-04-22T05:20:50.437Z,43
2019-04-22T05:25:31.437Z,42
2019-04-22T05:30:53.308Z,40
2019-04-22T05:35:37.346Z,38
2019-04-22T05:40:49.475Z,37
2019-04-22T05:45:31.013Z,35
2019-04-22T05:50:36.528Z,35
2019-04-22T05:55:41.362Z,34
2019-04-22T06:01:03.473Z,33
2019-04-22T06:05:34.172Z,29
2019-04-22T06:10:51.483Z,30
2019-04-22T06:15:33.706Z,29
2019-04-22T06:20:36.746Z,28
2019-04-22T06:26:04.745Z,27
2019-04-22T06:40:38.970Z,23
2019-04-22T06:45:33.607Z,24
2019-04-22T06:55:51.113Z,24
2019-04-22T07:00:36.452Z,22
2019-04-22T07:05:41.031Z,22
2019-04-22T07:10:41.867Z,22
2019-04-22T07:15:46.141Z,21
2019-04-22T07:20:36.143Z,20
2019-04-22T07:25:34.378Z,20
2019-04-22T07:30:38.528Z,20
2019-04-22T07:35:45.782Z,20
2019-04-22T07:40:38.615Z,19
2019-04-22T07:45:35.709Z,19
2019-04-22T07:50:48.816Z,18
2019-04-22T07:55:37.913Z,18
2019-04-22T08:05:43.889Z,18
2019-04-22T08:10:42.914Z,18
2019-04-22T08:15:38.581Z,17
2019-04-22T08:25:38.666Z,17
2019-04-22T08:30:39.431Z,15
2019-04-22T08:35:51.947Z,16
2019-04-22T08:40:41.639Z,15
2019-04-22T08:45:38.264Z,16
2019-04-22T08:50:38.659Z,16
2019-04-22T08:55:38.048Z,17
2019-04-22T09:00:43.440Z,20
2019-04-22T09:05:48.194Z,22
2019-04-22T09:10:43.129Z,20
2019-04-22T09:15:33.899Z,19
2019-04-22T09:20:40.114Z,19
2019-04-22T09:25:39.020Z,18
2019-04-22T09:30:39.658Z,15
2019-04-22T09:35:36.029Z,13
2019-04-22T09:40:34.061Z,14
2019-04-22T09:45:33.940Z,15
2019-04-22T09:50:41.898Z,16
2019-04-22T09:55:33.968Z,17
2019-04-22T10:00:42.448Z,15
2019-04-22T10:05:40.510Z,17
2019-04-22T10:10:41.325Z,16
2019-04-22T10:15:38.898Z,17
2019-04-22T10:20:37.666Z,15
2019-04-22T10:25:34.593Z,15
2019-04-22T10:30:42.801Z,15
2019-04-22T10:35:16.871Z,16
2019-04-22T10:40:13.551Z,16
2019-04-22T10:45:12.399Z,16
2019-04-22T10:50:12.392Z,16
2019-04-22T10:55:13.607Z,15
2019-04-22T11:00:13.420Z,16
2019-04-22T11:05:12.376Z,17
2019-04-22T11:10:27.202Z,17
2019-04-22T11:15:12.182Z,17
2019-04-22T11:20:13.344Z,16
2019-04-22T11:25:12.147Z,17
2019-04-22T11:30:13.521Z,16
2019-04-22T11:35:12.147Z,17
2019-04-22T11:40:18.699Z,19
2019-04-22T11:45:13.160Z,19
2019-04-22T11:50:12.232Z,17
2019-04-22T11:55:12.769Z,18
2019-04-22T12:00:12.601Z,18
2019-04-22T12:05:12.168Z,17
2019-04-22T12:10:27.130Z,21
2019-04-22T12:15:12.702Z,24
2019-04-22T12:20:14.000Z,25
2019-04-22T12:25:12.433Z,26
2019-04-22T12:30:12.174Z,26
2019-04-22T12:35:13.523Z,27
2019-04-22T12:40:13.023Z,26
2019-04-22T12:45:12.241Z,26
2019-04-22T12:50:18.330Z,27
2019-04-22T12:55:12.165Z,26
2019-04-22T13:00:13.568Z,24
2019-04-22T13:05:12.457Z,26
2019-04-22T13:10:13.619Z,26
2019-04-22T13:15:12.185Z,25
2019-04-22T13:20:14.908Z,26
2019-04-22T13:25:12.467Z,27
2019-04-22T13:30:12.482Z,27
2019-04-22T13:35:12.806Z,27
2019-04-22T13:40:12.789Z,27
2019-04-22T13:45:13.383Z,27
2019-04-22T13:51:36.015Z,27
2019-04-22T13:55:50.998Z,27
2019-04-22T14:00:13.519Z,28
2019-04-22T14:05:12.849Z,29
2019-04-22T14:10:12.289Z,28
2019-04-22T14:15:12.203Z,29
2019-04-22T14:20:13.068Z,30
2019-04-22T14:25:12.568Z,31
2019-04-22T14:30:12.526Z,31
2019-04-22T14:35:13.225Z,31
2019-04-22T14:40:13.912Z,31
2019-04-22T14:45:37.743Z,32
2019-04-22T14:50:34.967Z,32
2019-04-22T14:55:17.403Z,32
2019-04-22T15:00:13.581Z,32
2019-04-22T15:05:12.321Z,33
2019-04-22T15:10:13.608Z,33
2019-04-22T15:15:13.459Z,34
2019-04-22T15:20:12.269Z,33
2019-04-22T15:25:12.591Z,33
2019-04-22T15:30:12.196Z,33
2019-04-22T15:35:13.348Z,32
2019-04-22T15:40:13.040Z,31
2019-04-22T15:45:14.484Z,31
2019-04-22T15:50:12.335Z,31
2019-04-22T15:55:12.221Z,32
2019-04-22T16:00:24.919Z,32
2019-04-22T16:05:12.879Z,32
2019-04-22T16:10:12.328Z,30
2019-04-22T16:15:13.243Z,30
2019-04-22T16:20:13.176Z,30
2019-04-22T16:25:13.277Z,30
2019-04-22T16:30:13.099Z,31
2019-04-22T16:35:12.671Z,32
2019-04-22T16:40:12.507Z,32
2019-04-22T16:45:13.477Z,31
2019-04-22T16:50:12.232Z,32
2019-04-22T16:55:12.814Z,32
2019-04-22T17:00:13.054Z,31
2019-04-22T17:05:13.720Z,32
2019-04-22T17:10:13.480Z,32
2019-04-22T17:15:14.262Z,33
2019-04-22T17:20:13.265Z,34
2019-04-22T17:25:12.236Z,34
2019-04-22T17:30:12.479Z,33
2019-04-22T17:35:12.453Z,34
2019-04-22T17:40:29.604Z,35
2019-04-22T17:45:33.134Z,35
2019-04-22T17:50:37.683Z,35
2019-04-22T17:55:40.227Z,35
2019-04-22T18:00:29.744Z,36
2019-04-22T18:05:14.881Z,37
2019-04-22T18:10:45.569Z,37
2019-04-22T18:15:29.202Z,37
2019-04-22T18:20:28.986Z,38
2019-04-22T18:25:27.367Z,39
2019-04-22T18:30:23.875Z,39
2019-04-22T18:35:30.500Z,40
2019-04-22T18:40:30.426Z,41
2019-04-22T18:45:39.249Z,41
2019-04-22T18:50:36.813Z,42
2019-04-22T18:55:26.351Z,42
2019-04-22T19:00:14.102Z,43
2019-04-22T19:05:26.123Z,43
2019-04-22T19:10:42.870Z,44
2019-04-22T19:15:36.233Z,45
2019-04-22T19:20:37.248Z,46
2019-04-22T19:25:28.926Z,47
2019-04-22T19:30:36.351Z,47
2019-04-22T19:35:26.271Z,48
2019-04-22T19:40:40.250Z,49
2019-04-22T19:45:32.388Z,49
2019-04-22T19:50:34.412Z,50
2019-04-22T19:55:34.735Z,51
2019-04-22T20:00:28.168Z,52
2019-04-22T20:05:37.011Z,53
2019-04-22T20:10:29.391Z,53
2019-04-22T20:15:26.431Z,54
2019-04-22T20:20:46.385Z,55
2019-04-22T20:25:27.794Z,56
2019-04-22T20:30:32.672Z,57
2019-04-22T20:35:32.545Z,58
2019-04-22T20:40:33.001Z,58
2019-04-22T20:45:34.654Z,60
2019-04-22T20:50:34.539Z,61
2019-04-22T20:55:25.288Z,62
2019-04-22T21:00:24.839Z,63
2019-04-22T21:05:23.233Z,64
2019-04-22T21:10:28.130Z,66
2019-04-22T21:15:36.625Z,67
2019-04-22T21:20:36.278Z,68
2019-04-22T21:25:22.413Z,70
2019-04-22T21:30:31.736Z,71
2019-04-22T21:35:46.729Z,72
2019-04-22T21:40:33.888Z,74
2019-04-22T21:45:23.654Z,76
2019-04-22T21:50:41.190Z,77
2019-04-22T21:55:37.146Z,78
2019-04-22T22:00:42.702Z,79
2019-04-22T22:05:27.037Z,81
2019-04-22T22:10:33.725Z,82
2019-04-22T22:15:28.490Z,83
2019-04-22T22:20:27.602Z,84
2019-04-22T22:25:27.791Z,85
2019-04-22T22:30:47.182Z,86
2019-04-22T22:35:29.329Z,87
2019-04-22T22:40:18.045Z,88
2019-04-22T22:45:22.296Z,89
2019-04-22T22:50:29.846Z,91
2019-04-22T22:55:32.836Z,91
2019-04-22T23:00:31.186Z,91
2019-04-22T23:05:37.390Z,91
2019-04-22T23:10:39.454Z,91
2019-04-22T23:15:27.310Z,91
2019-04-22T23:20:13.560Z,91
2019-04-22T23:25:32.627Z,90
2019-04-22T23:30:21.434Z,90
2019-04-22T23:35:28.137Z,90
2019-04-22T23:40:34.178Z,90
2019-04-22T23:45:32.813Z,90
2019-04-22T23:50:30.569Z,90
2019-04-22T23:55:32.261Z,90
